Portada
METAR-TAF:

METAR-TAF

Aeroports :

Saint-Étienne, França

latitud: 45-32N, longitud: 004-18E, altitud: 404 m

Observació

L'informe es va fer fa 18 minuts, a les 19:30 UTC
Vent 6 kt del Nord-Oest
Temperatura 16°C
Humitat 77%
Pressió 1007 hPa
Visibilitat 10 km o més
sense núvols per sota de 1500 mi sense presència de cumulonimbus.

METAR: LFMH 061930Z AUTO 32006KT CAVOK 16/12 Q1007

Hora: 21:48 (19:48 UTC)


TAF: manca

Observacions i pronòstics meteorològics de més de 4000 aeroports (METAR i TAF).

Les estacions disponibles són els punts grocs i vermells al mapa.

Posi el ratolí al punt desitjat per veure el nom de l'estació.

Feu clic per veure les observacions i els pronòstics meteorològics.

Per canviar el mapa: feu clic els botons verds amb una creu de color negre per apropar; al botó verd amb un guió per allunyar la imatge; o en les fletxes verdes per a mapes adjacents.


METAR-TAF: